sensor_id;sensor_type;location;lat;lon;timestamp;pressure;altitude;pressure_sealevel;temperature;humidity
4586;BME280;2305;50.118;8.952;2023-05-09T00:00:35;100861.16;;;17.09;100.00
4586;BME280;2305;50.118;8.952;2023-05-09T00:03:05;100856.97;;;17.07;100.00
4586;BME280;2305;50.118;8.952;2023-05-09T00:05:35;100852.44;;;16.99;100.00
4586;BME280;2305;50.118;8.952;2023-05-09T00:08:04;100853.59;;;16.97;100.00
4586;BME280;2305;50.118;8.952;2023-05-09T00:10:33;100853.19;;;16.92;100.00
4586;BME280;2305;50.118;8.952;2023-05-09T00:13:03;100850.53;;;16.92;100.00
4586;BME280;2305;50.118;8.952;2023-05-09T00:15:32;100857.22;;;16.96;100.00
4586;BME280;2305;50.118;8.952;2023-05-09T00:18:04;100857.22;;;16.96;100.00
4586;BME280;2305;50.118;8.952;2023-05-09T00:20:37;100855.25;;;16.98;100.00
4586;BME280;2305;50.118;8.952;2023-05-09T00:23:07;100847.13;;;16.99;100.00
4586;BME280;2305;50.118;8.952;2023-05-09T00:25:36;100847.94;;;17.00;100.00
4586;BME280;2305;50.118;8.952;2023-05-09T00:28:10;100846.94;;;17.01;100.00
4586;BME280;2305;50.118;8.952;2023-05-09T00:30:38;100833.34;;;17.04;100.00
4586;BME280;2305;50.118;8.952;2023-05-09T00:33:07;100826.63;;;17.00;100.00
4586;BME280;2305;50.118;8.952;2023-05-09T00:35:37;100828.16;;;17.02;100.00
4586;BME280;2305;50.118;8.952;2023-05-09T00:38:05;100828.31;;;17.01;100.00
4586;BME280;2305;50.118;8.952;2023-05-09T00:40:33;100823.81;;;17.01;100.00
4586;BME280;2305;50.118;8.952;2023-05-09T00:43:02;100826.50;;;17.01;100.00
4586;BME280;2305;50.118;8.952;2023-05-09T00:45:33;100823.16;;;16.99;100.00
4586;BME280;2305;50.118;8.952;2023-05-09T00:48:03;100827.34;;;17.02;100.00
4586;BME280;2305;50.118;8.952;2023-05-09T00:50:32;100825.50;;;17.02;100.00
4586;BME280;2305;50.118;8.952;2023-05-09T00:53:03;100823.81;;;17.01;100.00
4586;BME280;2305;50.118;8.952;2023-05-09T00:55:35;100821.50;;;16.98;100.00
4586;BME280;2305;50.118;8.952;2023-05-09T00:58:03;100818.28;;;16.95;100.00
4586;BME280;2305;50.118;8.952;2023-05-09T01:00:32;100822.91;;;16.93;100.00
4586;BME280;2305;50.118;8.952;2023-05-09T01:03:03;100815.91;;;16.92;100.00
4586;BME280;2305;50.118;8.952;2023-05-09T01:06:02;100814.63;;;16.96;100.00
4586;BME280;2305;50.118;8.952;2023-05-09T01:08:43;100813.78;;;16.95;100.00
4586;BME280;2305;50.118;8.952;2023-05-09T01:11:37;100810.75;;;16.90;100.00
4586;BME280;2305;50.118;8.952;2023-05-09T01:14:35;100806.94;;;16.93;100.00
4586;BME280;2305;50.118;8.952;2023-05-09T01:17:32;100807.13;;;16.91;100.00
4586;BME280;2305;50.118;8.952;2023-05-09T01:20:12;100806.25;;;16.91;100.00
4586;BME280;2305;50.118;8.952;2023-05-09T01:22:45;100793.28;;;16.88;100.00
4586;BME280;2305;50.118;8.952;2023-05-09T01:25:40;100790.09;;;16.84;100.00
4586;BME280;2305;50.118;8.952;2023-05-09T01:31:29;100789.56;;;16.81;100.00
4586;BME280;2305;50.118;8.952;2023-05-09T01:34:01;100793.50;;;16.77;100.00
4586;BME280;2305;50.118;8.952;2023-05-09T01:36:32;100785.81;;;16.74;100.00
4586;BME280;2305;50.118;8.952;2023-05-09T01:39:02;100785.44;;;16.69;100.00
4586;BME280;2305;50.118;8.952;2023-05-09T01:41:35;100790.09;;;16.67;100.00
4586;BME280;2305;50.118;8.952;2023-05-09T01:44:07;100783.78;;;16.68;100.00
4586;BME280;2305;50.118;8.952;2023-05-09T01:46:38;100782.78;;;16.69;100.00
4586;BME280;2305;50.118;8.952;2023-05-09T01:49:07;100782.91;;;16.67;100.00
4586;BME280;2305;50.118;8.952;2023-05-09T01:51:40;100785.59;;;16.67;100.00
4586;BME280;2305;50.118;8.952;2023-05-09T01:54:13;100789.25;;;16.66;100.00
4586;BME280;2305;50.118;8.952;2023-05-09T01:56:42;100793.03;;;16.64;100.00
4586;BME280;2305;50.118;8.952;2023-05-09T01:59:13;100784.91;;;16.65;100.00
4586;BME280;2305;50.118;8.952;2023-05-09T02:01:48;100783.38;;;16.63;100.00
4586;BME280;2305;50.118;8.952;2023-05-09T02:04:20;100787.03;;;16.62;100.00
4586;BME280;2305;50.118;8.952;2023-05-09T02:06:53;100786.50;;;16.58;100.00
4586;BME280;2305;50.118;8.952;2023-05-09T02:09:23;100777.69;;;16.58;100.00
4586;BME280;2305;50.118;8.952;2023-05-09T02:11:54;100776.72;;;16.59;100.00
4586;BME280;2305;50.118;8.952;2023-05-09T02:14:22;100772.53;;;16.56;100.00
4586;BME280;2305;50.118;8.952;2023-05-09T02:16:55;100774.34;;;16.56;100.00
4586;BME280;2305;50.118;8.952;2023-05-09T02:19:28;100761.19;;;16.54;100.00
4586;BME280;2305;50.118;8.952;2023-05-09T02:21:57;100759.69;;;16.52;100.00
4586;BME280;2305;50.118;8.952;2023-05-09T02:24:25;100755.50;;;16.49;100.00
4586;BME280;2305;50.118;8.952;2023-05-09T02:26:56;100756.63;;;16.47;100.00
4586;BME280;2305;50.118;8.952;2023-05-09T02:29:31;100764.09;;;16.43;100.00
4586;BME280;2305;50.118;8.952;2023-05-09T02:32:10;100770.53;;;16.41;100.00
4586;BME280;2305;50.118;8.952;2023-05-09T02:34:44;100765.53;;;16.38;100.00
4586;BME280;2305;50.118;8.952;2023-05-09T02:37:13;100765.63;;;16.36;100.00
4586;BME280;2305;50.118;8.952;2023-05-09T02:39:42;100762.44;;;16.33;100.00
4586;BME280;2305;50.118;8.952;2023-05-09T02:42:12;100757.25;;;16.31;100.00
4586;BME280;2305;50.118;8.952;2023-05-09T02:44:42;100748.75;;;16.28;100.00
4586;BME280;2305;50.118;8.952;2023-05-09T02:47:12;100744.03;;;16.22;100.00
4586;BME280;2305;50.118;8.952;2023-05-09T02:49:42;100742.16;;;16.14;100.00
4586;BME280;2305;50.118;8.952;2023-05-09T02:52:11;100738.94;;;16.11;100.00
4586;BME280;2305;50.118;8.952;2023-05-09T02:54:40;100741.22;;;16.06;100.00
4586;BME280;2305;50.118;8.952;2023-05-09T02:57:09;100738.16;;;16.01;100.00
4586;BME280;2305;50.118;8.952;2023-05-09T02:59:37;100733.28;;;15.96;100.00
4586;BME280;2305;50.118;8.952;2023-05-09T03:02:06;100729.09;;;15.94;100.00
4586;BME280;2305;50.118;8.952;2023-05-09T03:04:36;100731.41;;;15.89;100.00
4586;BME280;2305;50.118;8.952;2023-05-09T03:07:05;100719.50;;;15.83;100.00
4586;BME280;2305;50.118;8.952;2023-05-09T03:09:33;100726.94;;;15.80;100.00
4586;BME280;2305;50.118;8.952;2023-05-09T03:12:02;100721.94;;;15.77;100.00
4586;BME280;2305;50.118;8.952;2023-05-09T03:14:32;100723.50;;;15.70;100.00
4586;BME280;2305;50.118;8.952;2023-05-09T03:17:03;100733.47;;;15.68;100.00
4586;BME280;2305;50.118;8.952;2023-05-09T03:19:35;100730.09;;;15.66;100.00
4586;BME280;2305;50.118;8.952;2023-05-09T03:22:04;100730.41;;;15.63;100.00
4586;BME280;2305;50.118;8.952;2023-05-09T03:24:37;100729.72;;;15.61;100.00
4586;BME280;2305;50.118;8.952;2023-05-09T03:27:07;100722.03;;;15.58;100.00
4586;BME280;2305;50.118;8.952;2023-05-09T03:29:35;100723.31;;;15.54;100.00
4586;BME280;2305;50.118;8.952;2023-05-09T03:32:06;100718.16;;;15.52;100.00
4586;BME280;2305;50.118;8.952;2023-05-09T03:34:36;100713.81;;;15.51;100.00
4586;BME280;2305;50.118;8.952;2023-05-09T03:37:07;100708.78;;;15.48;100.00
4586;BME280;2305;50.118;8.952;2023-05-09T03:39:38;100701.97;;;15.46;100.00
4586;BME280;2305;50.118;8.952;2023-05-09T03:42:12;100708.25;;;15.45;100.00
4586;BME280;2305;50.118;8.952;2023-05-09T03:44:47;100707.56;;;15.43;100.00
4586;BME280;2305;50.118;8.952;2023-05-09T03:47:18;100702.56;;;15.40;100.00
4586;BME280;2305;50.118;8.952;2023-05-09T03:49:48;100712.31;;;15.39;100.00
4586;BME280;2305;50.118;8.952;2023-05-09T03:52:21;100708.13;;;15.37;100.00
4586;BME280;2305;50.118;8.952;2023-05-09T03:54:53;100706.19;;;15.39;100.00
4586;BME280;2305;50.118;8.952;2023-05-09T03:57:22;100705.22;;;15.40;100.00
4586;BME280;2305;50.118;8.952;2023-05-09T03:59:53;100707.03;;;15.39;100.00
4586;BME280;2305;50.118;8.952;2023-05-09T04:02:24;100700.88;;;15.39;100.00
4586;BME280;2305;50.118;8.952;2023-05-09T04:04:55;100696.53;;;15.38;100.00
4586;BME280;2305;50.118;8.952;2023-05-09T04:07:24;100697.38;;;15.38;100.00
4586;BME280;2305;50.118;8.952;2023-05-09T04:09:58;100690.09;;;15.40;100.00
4586;BME280;2305;50.118;8.952;2023-05-09T04:12:27;100692.91;;;15.39;100.00
4586;BME280;2305;50.118;8.952;2023-05-09T04:14:58;100697.69;;;15.35;100.00
4586;BME280;2305;50.118;8.952;2023-05-09T04:17:30;100697.69;;;15.35;100.00
4586;BME280;2305;50.118;8.952;2023-05-09T04:20:00;100694.50;;;15.32;100.00
4586;BME280;2305;50.118;8.952;2023-05-09T04:22:34;100689.84;;;15.34;100.00
4586;BME280;2305;50.118;8.952;2023-05-09T04:25:04;100695.44;;;15.31;100.00
4586;BME280;2305;50.118;8.952;2023-05-09T04:27:32;100695.72;;;15.28;100.00
4586;BME280;2305;50.118;8.952;2023-05-09T04:30:05;100703.00;;;15.26;100.00
4586;BME280;2305;50.118;8.952;2023-05-09T04:32:36;100696.84;;;15.25;100.00
4586;BME280;2305;50.118;8.952;2023-05-09T04:35:11;100701.16;;;15.26;100.00
4586;BME280;2305;50.118;8.952;2023-05-09T04:37:47;100704.66;;;15.27;100.00
4586;BME280;2305;50.118;8.952;2023-05-09T04:40:18;100700.03;;;15.29;100.00
4586;BME280;2305;50.118;8.952;2023-05-09T04:42:53;100706.34;;;15.28;100.00
4586;BME280;2305;50.118;8.952;2023-05-09T04:45:28;100701.59;;;15.31;100.00
4586;BME280;2305;50.118;8.952;2023-05-09T04:47:59;100692.66;;;15.32;100.00
4586;BME280;2305;50.118;8.952;2023-05-09T04:50:29;100698.38;;;15.37;100.00
4586;BME280;2305;50.118;8.952;2023-05-09T04:52:59;100705.59;;;15.45;100.00
4586;BME280;2305;50.118;8.952;2023-05-09T04:55:30;100705.72;;;15.53;100.00
4586;BME280;2305;50.118;8.952;2023-05-09T04:58:02;100706.94;;;15.58;100.00
4586;BME280;2305;50.118;8.952;2023-05-09T05:00:31;100707.34;;;15.63;100.00
4586;BME280;2305;50.118;8.952;2023-05-09T05:03:00;100703.25;;;15.69;100.00
4586;BME280;2305;50.118;8.952;2023-05-09T05:05:31;100693.69;;;15.76;100.00
4586;BME280;2305;50.118;8.952;2023-05-09T05:08:03;100686.66;;;15.84;100.00
4586;BME280;2305;50.118;8.952;2023-05-09T05:10:36;100683.09;;;15.93;100.00
4586;BME280;2305;50.118;8.952;2023-05-09T05:13:08;100672.00;;;15.98;100.00
4586;BME280;2305;50.118;8.952;2023-05-09T05:15:41;100670.03;;;16.00;100.00
4586;BME280;2305;50.118;8.952;2023-05-09T05:18:11;100675.06;;;16.03;100.00
4586;BME280;2305;50.118;8.952;2023-05-09T05:20:43;100674.88;;;16.04;100.00
4586;BME280;2305;50.118;8.952;2023-05-09T05:23:13;100666.91;;;16.04;100.00
4586;BME280;2305;50.118;8.952;2023-05-09T05:25:43;100661.78;;;16.03;100.00
4586;BME280;2305;50.118;8.952;2023-05-09T05:28:37;100664.25;;;16.04;100.00
4586;BME280;2305;50.118;8.952;2023-05-09T05:31:07;100659.13;;;16.03;100.00
4586;BME280;2305;50.118;8.952;2023-05-09T05:33:37;100663.59;;;16.02;100.00
4586;BME280;2305;50.118;8.952;2023-05-09T05:36:07;100665.56;;;16.00;100.00
4586;BME280;2305;50.118;8.952;2023-05-09T05:38:38;100664.56;;;16.01;100.00
4586;BME280;2305;50.118;8.952;2023-05-09T05:41:06;100663.72;;;16.01;100.00
4586;BME280;2305;50.118;8.952;2023-05-09T05:43:39;100664.19;;;15.96;100.00
4586;BME280;2305;50.118;8.952;2023-05-09T05:46:07;100670.34;;;15.97;100.00
4586;BME280;2305;50.118;8.952;2023-05-09T05:48:42;100667.16;;;15.93;100.00
4586;BME280;2305;50.118;8.952;2023-05-09T05:51:15;100665.16;;;15.95;100.00
4586;BME280;2305;50.118;8.952;2023-05-09T05:53:45;100667.28;;;15.92;100.00
4586;BME280;2305;50.118;8.952;2023-05-09T05:56:15;100663.09;;;15.89;100.00
4586;BME280;2305;50.118;8.952;2023-05-09T05:58:44;100670.09;;;15.90;100.00
4586;BME280;2305;50.118;8.952;2023-05-09T06:01:13;100665.63;;;15.91;100.00
4586;BME280;2305;50.118;8.952;2023-05-09T06:03:41;100665.63;;;15.91;100.00
4586;BME280;2305;50.118;8.952;2023-05-09T06:06:10;100667.16;;;15.93;100.00
4586;BME280;2305;50.118;8.952;2023-05-09T06:08:39;100668.69;;;15.96;100.00
4586;BME280;2305;50.118;8.952;2023-05-09T06:11:07;100670.88;;;16.00;100.00
4586;BME280;2305;50.118;8.952;2023-05-09T06:13:37;100667.44;;;16.08;100.00
4586;BME280;2305;50.118;8.952;2023-05-09T06:16:08;100671.03;;;16.16;100.00
4586;BME280;2305;50.118;8.952;2023-05-09T06:18:48;100656.19;;;16.31;100.00
4586;BME280;2305;50.118;8.952;2023-05-09T06:21:22;100654.69;;;16.46;100.00
4586;BME280;2305;50.118;8.952;2023-05-09T06:23:54;100654.84;;;16.62;100.00
4586;BME280;2305;50.118;8.952;2023-05-09T06:26:41;100646.63;;;16.81;100.00
4586;BME280;2305;50.118;8.952;2023-05-09T06:29:09;100645.44;;;17.01;100.00
4586;BME280;2305;50.118;8.952;2023-05-09T06:31:42;100648.69;;;17.21;100.00
4586;BME280;2305;50.118;8.952;2023-05-09T06:34:10;100641.75;;;17.36;100.00
4586;BME280;2305;50.118;8.952;2023-05-09T06:36:41;100647.66;;;17.47;100.00
4586;BME280;2305;50.118;8.952;2023-05-09T06:39:13;100639.22;;;17.60;100.00
4586;BME280;2305;50.118;8.952;2023-05-09T06:41:41;100635.22;;;17.64;100.00
4586;BME280;2305;50.118;8.952;2023-05-09T06:44:09;100636.59;;;17.68;100.00
4586;BME280;2305;50.118;8.952;2023-05-09T06:46:37;100634.28;;;17.73;100.00
4586;BME280;2305;50.118;8.952;2023-05-09T06:49:05;100628.44;;;17.77;100.00
4586;BME280;2305;50.118;8.952;2023-05-09T06:51:35;100628.78;;;17.82;100.00
4586;BME280;2305;50.118;8.952;2023-05-09T06:54:06;100622.78;;;17.88;100.00
4586;BME280;2305;50.118;8.952;2023-05-09T06:56:38;100626.66;;;18.02;100.00
4586;BME280;2305;50.118;8.952;2023-05-09T06:59:07;100613.00;;;18.05;100.00
4586;BME280;2305;50.118;8.952;2023-05-09T07:01:43;100607.34;;;18.16;100.00
4586;BME280;2305;50.118;8.952;2023-05-09T07:04:11;100607.66;;;18.21;100.00
4586;BME280;2305;50.118;8.952;2023-05-09T07:06:39;100605.81;;;18.29;100.00
4586;BME280;2305;50.118;8.952;2023-05-09T07:09:09;100603.34;;;18.36;100.00
4586;BME280;2305;50.118;8.952;2023-05-09T07:11:44;100599.00;;;18.35;100.00
4586;BME280;2305;50.118;8.952;2023-05-09T07:14:12;100598.69;;;18.38;100.00
4586;BME280;2305;50.118;8.952;2023-05-09T07:16:41;100604.69;;;18.32;100.00
4586;BME280;2305;50.118;8.952;2023-05-09T07:19:10;100593.66;;;18.43;100.00
4586;BME280;2305;50.118;8.952;2023-05-09T07:21:39;100591.34;;;18.40;100.00
4586;BME280;2305;50.118;8.952;2023-05-09T07:24:09;100591.19;;;18.33;100.00
4586;BME280;2305;50.118;8.952;2023-05-09T07:26:39;100584.84;;;18.42;100.00
4586;BME280;2305;50.118;8.952;2023-05-09T07:29:09;100585.97;;;18.64;100.00
4586;BME280;2305;50.118;8.952;2023-05-09T07:31:37;100580.25;;;18.83;100.00
4586;BME280;2305;50.118;8.952;2023-05-09T07:34:06;100587.91;;;18.93;100.00
4586;BME280;2305;50.118;8.952;2023-05-09T07:36:34;100579.91;;;18.77;100.00
4586;BME280;2305;50.118;8.952;2023-05-09T07:39:10;100584.09;;;18.80;100.00
4586;BME280;2305;50.118;8.952;2023-05-09T07:41:38;100574.06;;;18.90;100.00
4586;BME280;2305;50.118;8.952;2023-05-09T07:44:06;100570.47;;;19.05;100.00
4586;BME280;2305;50.118;8.952;2023-05-09T07:46:36;100564.53;;;18.95;100.00
4586;BME280;2305;50.118;8.952;2023-05-09T07:49:07;100555.03;;;18.85;100.00
4586;BME280;2305;50.118;8.952;2023-05-09T07:51:35;100553.19;;;18.85;100.00
4586;BME280;2305;50.118;8.952;2023-05-09T07:54:04;100551.00;;;18.89;100.00
4586;BME280;2305;50.118;8.952;2023-05-09T07:56:36;100549.50;;;18.94;100.00
4586;BME280;2305;50.118;8.952;2023-05-09T07:59:05;100540.94;;;19.07;100.00
4586;BME280;2305;50.118;8.952;2023-05-09T08:01:33;100533.44;;;19.02;100.00
4586;BME280;2305;50.118;8.952;2023-05-09T08:04:07;100543.38;;;19.24;100.00
4586;BME280;2305;50.118;8.952;2023-05-09T08:06:39;100531.09;;;19.38;100.00
4586;BME280;2305;50.118;8.952;2023-05-09T08:09:10;100528.53;;;19.52;100.00
4586;BME280;2305;50.118;8.952;2023-05-09T08:11:38;100527.50;;;19.53;100.00
4586;BME280;2305;50.118;8.952;2023-05-09T08:14:11;100522.75;;;19.63;100.00
4586;BME280;2305;50.118;8.952;2023-05-09T08:16:41;100512.78;;;19.57;100.00
4586;BME280;2305;50.118;8.952;2023-05-09T08:19:11;100507.72;;;19.62;100.00
4586;BME280;2305;50.118;8.952;2023-05-09T08:21:42;100503.50;;;19.45;100.00
4586;BME280;2305;50.118;8.952;2023-05-09T08:24:12;100515.34;;;19.73;100.00
4586;BME280;2305;50.118;8.952;2023-05-09T08:26:42;100508.97;;;19.97;100.00
4586;BME280;2305;50.118;8.952;2023-05-09T08:29:11;100509.47;;;19.92;100.00
4586;BME280;2305;50.118;8.952;2023-05-09T08:31:39;100511.28;;;19.77;100.00
4586;BME280;2305;50.118;8.952;2023-05-09T08:34:08;100499.94;;;19.75;100.00
4586;BME280;2305;50.118;8.952;2023-05-09T08:36:40;100510.16;;;19.72;100.00
4586;BME280;2305;50.118;8.952;2023-05-09T08:39:11;100504.81;;;19.49;100.00
4586;BME280;2305;50.118;8.952;2023-05-09T08:41:43;100498.34;;;19.44;100.00
4586;BME280;2305;50.118;8.952;2023-05-09T08:44:12;100499.69;;;19.62;100.00
4586;BME280;2305;50.118;8.952;2023-05-09T08:46:42;100496.97;;;19.70;100.00
4586;BME280;2305;50.118;8.952;2023-05-09T08:49:13;100492.47;;;19.71;100.00
4586;BME280;2305;50.118;8.952;2023-05-09T08:51:47;100489.31;;;19.67;100.00
4586;BME280;2305;50.118;8.952;2023-05-09T08:54:17;100491.66;;;19.85;100.00
4586;BME280;2305;50.118;8.952;2023-05-09T08:56:52;100484.38;;;20.16;100.00
4586;BME280;2305;50.118;8.952;2023-05-09T08:59:21;100481.84;;;20.00;100.00
4586;BME280;2305;50.118;8.952;2023-05-09T09:01:50;100481.72;;;20.16;100.00
4586;BME280;2305;50.118;8.952;2023-05-09T09:04:21;100470.91;;;20.09;100.00
4586;BME280;2305;50.118;8.952;2023-05-09T09:06:52;100464.63;;;20.17;100.00
4586;BME280;2305;50.118;8.952;2023-05-09T09:09:25;100470.59;;;20.04;100.00
4586;BME280;2305;50.118;8.952;2023-05-09T09:11:55;100464.28;;;20.20;100.00
4586;BME280;2305;50.118;8.952;2023-05-09T09:14:30;100464.75;;;20.23;100.00
4586;BME280;2305;50.118;8.952;2023-05-09T09:17:01;100455.88;;;20.52;100.00
4586;BME280;2305;50.118;8.952;2023-05-09T09:19:32;100452.56;;;20.64;100.00
4586;BME280;2305;50.118;8.952;2023-05-09T09:22:07;100448.94;;;20.72;100.00
4586;BME280;2305;50.118;8.952;2023-05-09T09:24:39;100445.75;;;20.62;100.00
4586;BME280;2305;50.118;8.952;2023-05-09T09:27:07;100443.25;;;20.46;100.00
4586;BME280;2305;50.118;8.952;2023-05-09T09:29:36;100449.25;;;20.19;100.00
4586;BME280;2305;50.118;8.952;2023-05-09T09:32:07;100435.69;;;20.35;100.00
4586;BME280;2305;50.118;8.952;2023-05-09T09:34:37;100438.91;;;20.45;100.00
4586;BME280;2305;50.118;8.952;2023-05-09T09:37:20;100437.25;;;20.29;100.00
4586;BME280;2305;50.118;8.952;2023-05-09T09:39:55;100442.88;;;20.49;100.00
4586;BME280;2305;50.118;8.952;2023-05-09T09:42:25;100436.75;;;20.69;100.00
4586;BME280;2305;50.118;8.952;2023-05-09T09:45:01;100430.28;;;20.78;100.00
4586;BME280;2305;50.118;8.952;2023-05-09T09:47:30;100434.56;;;20.87;100.00
4586;BME280;2305;50.118;8.952;2023-05-09T09:50:08;100427.81;;;20.62;100.00
4586;BME280;2305;50.118;8.952;2023-05-09T09:52:43;100432.06;;;20.71;100.00
4586;BME280;2305;50.118;8.952;2023-05-09T09:55:11;100418.75;;;20.63;100.00
4586;BME280;2305;50.118;8.952;2023-05-09T09:57:40;100410.53;;;20.65;100.00
4586;BME280;2305;50.118;8.952;2023-05-09T10:00:12;100409.78;;;20.71;100.00
4586;BME280;2305;50.118;8.952;2023-05-09T10:02:49;100410.19;;;20.53;100.00
4586;BME280;2305;50.118;8.952;2023-05-09T10:05:20;100403.91;;;20.46;100.00
4586;BME280;2305;50.118;8.952;2023-05-09T10:07:53;100395.03;;;20.60;100.00
4586;BME280;2305;50.118;8.952;2023-05-09T10:10:24;100402.16;;;20.53;100.00
4586;BME280;2305;50.118;8.952;2023-05-09T10:12:59;100394.28;;;20.66;100.00
4586;BME280;2305;50.118;8.952;2023-05-09T10:15:34;100397.84;;;20.88;100.00
4586;BME280;2305;50.118;8.952;2023-05-09T10:18:24;100390.09;;;20.93;100.00
4586;BME280;2305;50.118;8.952;2023-05-09T10:20:55;100390.53;;;20.61;100.00
4586;BME280;2305;50.118;8.952;2023-05-09T10:23:31;100387.97;;;20.38;100.00
4586;BME280;2305;50.118;8.952;2023-05-09T10:26:09;100384.72;;;20.43;100.00
4586;BME280;2305;50.118;8.952;2023-05-09T10:28:44;100375.50;;;20.31;100.00
4586;BME280;2305;50.118;8.952;2023-05-09T10:31:21;100364.59;;;20.32;100.00
4586;BME280;2305;50.118;8.952;2023-05-09T10:33:58;100364.41;;;20.48;100.00
4586;BME280;2305;50.118;8.952;2023-05-09T10:36:28;100365.88;;;20.51;100.00
4586;BME280;2305;50.118;8.952;2023-05-09T10:39:00;100349.03;;;20.71;100.00
4586;BME280;2305;50.118;8.952;2023-05-09T10:41:32;100353.06;;;20.82;100.00
4586;BME280;2305;50.118;8.952;2023-05-09T10:44:00;100344.19;;;20.81;100.00
4586;BME280;2305;50.118;8.952;2023-05-09T10:46:29;100343.03;;;21.05;100.00
4586;BME280;2305;50.118;8.952;2023-05-09T10:48:58;100333.03;;;21.41;100.00
4586;BME280;2305;50.118;8.952;2023-05-09T10:51:26;100330.13;;;21.63;100.00
4586;BME280;2305;50.118;8.952;2023-05-09T10:53:56;100330.03;;;21.78;100.00
4586;BME280;2305;50.118;8.952;2023-05-09T10:56:30;100326.94;;;21.81;100.00
4586;BME280;2305;50.118;8.952;2023-05-09T10:59:01;100326.84;;;21.95;100.00
4586;BME280;2305;50.118;8.952;2023-05-09T11:01:31;100317.69;;;21.56;100.00
4586;BME280;2305;50.118;8.952;2023-05-09T11:04:08;100310.28;;;21.85;100.00
4586;BME280;2305;50.118;8.952;2023-05-09T11:06:45;100307.47;;;22.00;100.00
4586;BME280;2305;50.118;8.952;2023-05-09T11:09:26;100299.28;;;22.14;100.00
4586;BME280;2305;50.118;8.952;2023-05-09T11:11:58;100290.22;;;22.15;100.00
4586;BME280;2305;50.118;8.952;2023-05-09T11:14:37;100274.78;;;22.30;100.00
4586;BME280;2305;50.118;8.952;2023-05-09T11:17:14;100273.66;;;22.65;100.00
4586;BME280;2305;50.118;8.952;2023-05-09T11:19:57;100267.28;;;22.79;100.00
4586;BME280;2305;50.118;8.952;2023-05-09T11:22:28;100262.75;;;22.99;100.00
4586;BME280;2305;50.118;8.952;2023-05-09T11:25:02;100256.13;;;22.95;100.00
4586;BME280;2305;50.118;8.952;2023-05-09T11:27:43;100252.00;;;22.99;100.00
4586;BME280;2305;50.118;8.952;2023-05-09T11:30:16;100259.84;;;23.14;100.00
4586;BME280;2305;50.118;8.952;2023-05-09T11:32:50;100249.94;;;23.01;100.00
4586;BME280;2305;50.118;8.952;2023-05-09T11:35:22;100253.06;;;23.18;100.00
4586;BME280;2305;50.118;8.952;2023-05-09T11:37:58;100240.41;;;23.51;100.00
4586;BME280;2305;50.118;8.952;2023-05-09T11:40:28;100240.03;;;23.21;100.00
4586;BME280;2305;50.118;8.952;2023-05-09T11:43:25;100229.06;;;23.29;100.00
4586;BME280;2305;50.118;8.952;2023-05-09T11:46:16;100221.13;;;23.60;100.00
4586;BME280;2305;50.118;8.952;2023-05-09T11:48:47;100219.22;;;23.80;100.00
4586;BME280;2305;50.118;8.952;2023-05-09T11:51:17;100222.09;;;23.98;100.00
4586;BME280;2305;50.118;8.952;2023-05-09T11:53:54;100213.72;;;24.19;100.00
4586;BME280;2305;50.118;8.952;2023-05-09T11:56:25;100214.91;;;24.23;100.00
4586;BME280;2305;50.118;8.952;2023-05-09T11:58:57;100208.84;;;24.34;100.00
4586;BME280;2305;50.118;8.952;2023-05-09T12:01:27;100203.03;;;24.37;100.00
4586;BME280;2305;50.118;8.952;2023-05-09T12:03:56;100205.63;;;24.50;100.00
4586;BME280;2305;50.118;8.952;2023-05-09T12:06:25;100203.56;;;24.52;100.00
4586;BME280;2305;50.118;8.952;2023-05-09T12:08:58;100185.88;;;24.62;100.00
4586;BME280;2305;50.118;8.952;2023-05-09T12:11:28;100189.28;;;24.45;100.00
4586;BME280;2305;50.118;8.952;2023-05-09T12:14:08;100180.03;;;24.34;100.00
4586;BME280;2305;50.118;8.952;2023-05-09T12:16:57;100183.03;;;24.20;100.00
4586;BME280;2305;50.118;8.952;2023-05-09T12:19:27;100171.22;;;24.58;100.00
4586;BME280;2305;50.118;8.952;2023-05-09T12:22:09;100165.31;;;24.68;100.00
4586;BME280;2305;50.118;8.952;2023-05-09T12:24:38;100163.25;;;24.70;100.00
4586;BME280;2305;50.118;8.952;2023-05-09T12:27:07;100157.03;;;24.38;100.00
4586;BME280;2305;50.118;8.952;2023-05-09T12:29:42;100151.66;;;24.32;100.00
4586;BME280;2305;50.118;8.952;2023-05-09T12:32:14;100146.81;;;24.16;100.00
4586;BME280;2305;50.118;8.952;2023-05-09T12:35:05;100136.47;;;24.13;100.00
4586;BME280;2305;50.118;8.952;2023-05-09T12:37:34;100134.31;;;23.91;100.00
4586;BME280;2305;50.118;8.952;2023-05-09T12:40:09;100142.53;;;24.02;100.00
4586;BME280;2305;50.118;8.952;2023-05-09T12:42:43;100135.22;;;24.16;100.00
4586;BME280;2305;50.118;8.952;2023-05-09T12:45:16;100121.25;;;23.94;100.00
4586;BME280;2305;50.118;8.952;2023-05-09T12:47:50;100116.56;;;24.14;100.00
4586;BME280;2305;50.118;8.952;2023-05-09T12:50:19;100111.31;;;24.26;100.00
4586;BME280;2305;50.118;8.952;2023-05-09T12:52:50;100099.69;;;24.25;100.00
4586;BME280;2305;50.118;8.952;2023-05-09T12:55:46;100108.44;;;24.51;100.00
4586;BME280;2305;50.118;8.952;2023-05-09T12:58:15;100092.88;;;24.78;100.00
4586;BME280;2305;50.118;8.952;2023-05-09T13:00:55;100089.59;;;24.76;100.00
4586;BME280;2305;50.118;8.952;2023-05-09T13:03:50;100080.19;;;24.54;100.00
4586;BME280;2305;50.118;8.952;2023-05-09T13:06:47;100078.41;;;24.48;100.00
4586;BME280;2305;50.118;8.952;2023-05-09T13:09:21;100077.09;;;24.57;100.00
4586;BME280;2305;50.118;8.952;2023-05-09T13:11:52;100067.06;;;24.88;100.00
4586;BME280;2305;50.118;8.952;2023-05-09T13:14:22;100063.91;;;24.91;98.79
4586;BME280;2305;50.118;8.952;2023-05-09T13:16:52;100062.09;;;24.67;93.74
4586;BME280;2305;50.118;8.952;2023-05-09T13:19:23;100050.22;;;24.93;98.00
4586;BME280;2305;50.118;8.952;2023-05-09T13:21:51;100049.63;;;24.91;94.59
4586;BME280;2305;50.118;8.952;2023-05-09T13:24:20;100041.81;;;25.01;94.11
4586;BME280;2305;50.118;8.952;2023-05-09T13:26:49;100033.03;;;25.41;96.99
4586;BME280;2305;50.118;8.952;2023-05-09T13:29:19;100023.25;;;25.88;96.11